createdAt,value
2023-08-25T00:01:17.778Z,19.50
2023-08-25T00:03:44.469Z,24.30
2023-08-25T00:06:11.157Z,24.00
2023-08-25T00:08:37.985Z,19.70
2023-08-25T00:11:04.801Z,20.20
2023-08-25T00:13:33.035Z,20.40
2023-08-25T00:16:00.923Z,20.30
2023-08-25T00:18:27.832Z,22.50
2023-08-25T00:20:54.363Z,19.90
2023-08-25T00:23:20.913Z,18.40
2023-08-25T00:25:47.862Z,23.90
2023-08-25T00:28:14.377Z,17.30
2023-08-25T00:30:40.832Z,23.10
2023-08-25T00:33:07.445Z,29.20
2023-08-25T00:35:33.944Z,31.00
2023-08-25T00:38:00.458Z,20.40
2023-08-25T00:40:26.890Z,20.60
2023-08-25T00:42:53.346Z,18.20
2023-08-25T00:45:20.157Z,18.90
2023-08-25T00:47:46.645Z,20.40
2023-08-25T00:50:14.814Z,20.60
2023-08-25T00:52:41.423Z,25.10
2023-08-25T00:55:08.299Z,15.20
2023-08-25T00:57:35.915Z,17.00
2023-08-25T01:00:05.052Z,20.60
2023-08-25T01:02:32.399Z,19.10
2023-08-25T01:04:59.161Z,20.20
2023-08-25T01:07:25.799Z,25.50
2023-08-25T01:09:52.386Z,21.10
2023-08-25T01:12:28.549Z,17.70
2023-08-25T01:15:05.028Z,13.90
2023-08-25T01:18:11.111Z,17.60
2023-08-25T01:20:38.011Z,24.00
2023-08-25T01:23:19.692Z,16.50
2023-08-25T01:25:47.391Z,20.60
2023-08-25T01:28:14.068Z,21.10
2023-08-25T01:30:40.706Z,20.80
2023-08-25T01:33:07.380Z,18.50
2023-08-25T01:35:48.438Z,16.80
2023-08-25T01:38:23.363Z,19.10
2023-08-25T01:40:59.931Z,20.30
2023-08-25T01:43:28.590Z,15.90
2023-08-25T01:45:56.680Z,14.90
2023-08-25T01:48:23.333Z,19.60
2023-08-25T01:50:50.051Z,15.90
2023-08-25T01:53:16.661Z,18.10
2023-08-25T01:55:43.099Z,30.80
2023-08-25T01:58:09.820Z,16.40
2023-08-25T02:00:36.221Z,14.80
2023-08-25T02:03:03.443Z,19.40
2023-08-25T02:05:29.914Z,18.60
2023-08-25T02:07:56.484Z,27.10
2023-08-25T02:10:23.037Z,19.80
2023-08-25T02:12:50.234Z,17.60
2023-08-25T02:15:17.381Z,20.00
2023-08-25T02:17:44.543Z,18.30
2023-08-25T02:20:11.174Z,13.90
2023-08-25T02:22:38.529Z,18.10
2023-08-25T02:25:05.254Z,16.20
2023-08-25T02:27:32.553Z,24.50
2023-08-25T02:29:58.944Z,13.60
2023-08-25T02:32:25.426Z,24.80
2023-08-25T02:34:51.912Z,28.00
2023-08-25T02:37:18.269Z,17.00
2023-08-25T02:39:44.730Z,16.30
2023-08-25T02:42:12.660Z,16.10
2023-08-25T02:44:39.188Z,16.60
2023-08-25T02:47:05.859Z,20.30
2023-08-25T02:49:32.409Z,19.90
2023-08-25T02:51:59.094Z,17.80
2023-08-25T02:54:25.607Z,19.00
2023-08-25T02:56:52.006Z,20.80
2023-08-25T02:59:18.594Z,21.30
2023-08-25T03:01:45.062Z,18.90
2023-08-25T03:04:11.677Z,28.20
2023-08-25T03:06:38.065Z,28.40
2023-08-25T03:09:05.413Z,72.50
2023-08-25T03:11:31.966Z,175.90
2023-08-25T03:14:00.366Z,45.00
2023-08-25T03:16:27.704Z,16.20
2023-08-25T03:18:54.869Z,26.30
2023-08-25T03:21:22.224Z,21.10
2023-08-25T03:23:48.658Z,18.20
2023-08-25T03:26:15.086Z,24.00
2023-08-25T03:28:41.476Z,16.90
2023-08-25T03:31:08.088Z,23.90
2023-08-25T03:33:34.689Z,14.70
2023-08-25T03:36:01.056Z,16.00
2023-08-25T03:38:27.436Z,19.30
2023-08-25T03:41:00.486Z,22.70
2023-08-25T03:43:26.971Z,22.80
2023-08-25T03:45:53.538Z,17.90
2023-08-25T03:48:20.513Z,24.90
2023-08-25T03:50:47.709Z,31.80
2023-08-25T03:53:14.865Z,24.20
2023-08-25T03:55:41.340Z,25.60
2023-08-25T03:58:07.753Z,18.20
2023-08-25T04:00:34.643Z,19.40
2023-08-25T04:03:01.135Z,22.50
2023-08-25T04:05:27.804Z,23.70
2023-08-25T04:07:56.290Z,18.00
2023-08-25T04:10:23.953Z,21.30
2023-08-25T04:12:50.794Z,19.30
2023-08-25T04:15:21.114Z,19.50
2023-08-25T04:17:47.811Z,18.40
2023-08-25T04:20:17.676Z,14.80
2023-08-25T04:22:44.340Z,16.20
2023-08-25T04:25:10.970Z,20.50
2023-08-25T04:27:37.479Z,18.10
2023-08-25T04:30:05.155Z,18.40
2023-08-25T04:32:32.064Z,20.80
2023-08-25T04:34:58.910Z,17.30
2023-08-25T04:37:25.482Z,17.00
2023-08-25T04:39:55.518Z,23.90
2023-08-25T04:42:22.712Z,14.70
2023-08-25T04:44:49.413Z,38.80
2023-08-25T04:47:16.673Z,23.40
2023-08-25T04:49:43.667Z,19.40
2023-08-25T04:52:11.059Z,57.70
2023-08-25T04:54:37.588Z,25.70
2023-08-25T04:57:04.489Z,75.00
2023-08-25T04:59:31.247Z,107.80
2023-08-25T05:01:57.695Z,41.90
2023-08-25T05:04:24.266Z,38.60
2023-08-25T05:06:50.660Z,38.70
2023-08-25T05:09:17.976Z,37.80
2023-08-25T05:11:44.797Z,41.60
2023-08-25T05:14:12.443Z,34.80
2023-08-25T05:16:40.311Z,25.50
2023-08-25T05:19:14.375Z,38.30
2023-08-25T05:21:41.260Z,40.00
2023-08-25T05:24:35.246Z,68.20
2023-08-25T05:27:03.522Z,41.00
2023-08-25T05:29:30.058Z,179.60
2023-08-25T05:32:00.688Z,65.80
2023-08-25T05:34:46.130Z,37.90
2023-08-25T05:37:13.425Z,121.80
2023-08-25T05:39:40.118Z,104.70
2023-08-25T05:42:08.492Z,44.40
2023-08-25T05:44:35.851Z,33.30
2023-08-25T05:47:02.407Z,26.40
2023-08-25T05:49:29.179Z,30.70
2023-08-25T05:51:56.275Z,24.10
2023-08-25T05:54:22.739Z,32.20
2023-08-25T05:56:49.771Z,21.00
2023-08-25T05:59:16.189Z,16.30
2023-08-25T06:01:42.716Z,11.70
2023-08-25T06:04:09.453Z,12.20
2023-08-25T06:06:38.994Z,22.70
2023-08-25T06:09:05.968Z,26.90
2023-08-25T06:11:32.583Z,53.40
2023-08-25T06:13:59.117Z,12.00
2023-08-25T06:16:27.186Z,14.40
2023-08-25T06:18:53.855Z,8.80
2023-08-25T06:21:20.389Z,7.60
2023-08-25T06:23:48.733Z,14.40
2023-08-25T06:26:15.257Z,9.70
2023-08-25T06:28:41.778Z,14.40
2023-08-25T06:31:08.723Z,9.00
2023-08-25T06:33:35.288Z,15.10
2023-08-25T06:36:01.731Z,13.40
2023-08-25T06:38:28.995Z,12.10
2023-08-25T06:40:56.325Z,12.80
2023-08-25T06:43:22.861Z,6.90
2023-08-25T06:45:49.483Z,26.20
2023-08-25T06:48:16.427Z,7.90
2023-08-25T06:50:43.023Z,5.40
2023-08-25T06:53:09.518Z,13.80
2023-08-25T06:55:36.057Z,7.70
2023-08-25T06:58:07.801Z,7.40
2023-08-25T07:00:34.756Z,11.10
2023-08-25T07:03:02.594Z,7.50
2023-08-25T07:05:31.461Z,14.50
2023-08-25T07:07:59.107Z,13.00
2023-08-25T07:10:25.707Z,55.70
2023-08-25T07:12:52.218Z,13.30
2023-08-25T07:15:19.702Z,8.00
2023-08-25T07:17:47.768Z,9.30
2023-08-25T07:20:14.184Z,19.70
2023-08-25T07:22:40.988Z,15.20
2023-08-25T07:25:08.251Z,12.00
2023-08-25T07:27:34.793Z,11.00
2023-08-25T07:30:01.666Z,6.70
2023-08-25T07:32:28.877Z,11.30
2023-08-25T07:34:56.569Z,4.30
2023-08-25T07:37:23.265Z,6.00
2023-08-25T07:39:51.682Z,10.40
2023-08-25T07:42:18.195Z,8.60
2023-08-25T07:44:44.917Z,9.70
2023-08-25T07:47:11.516Z,8.80
2023-08-25T07:49:38.750Z,6.30
2023-08-25T07:52:05.299Z,6.30
2023-08-25T07:54:31.849Z,8.70
2023-08-25T07:56:59.052Z,4.50
2023-08-25T07:59:25.641Z,5.50
2023-08-25T08:01:52.037Z,7.90
2023-08-25T08:04:18.775Z,6.50
2023-08-25T08:06:45.848Z,16.20
2023-08-25T08:09:12.394Z,10.80
2023-08-25T08:11:39.532Z,5.20
2023-08-25T08:14:06.046Z,5.90
2023-08-25T08:16:35.680Z,5.90
2023-08-25T08:21:32.379Z,19.60
2023-08-25T08:23:58.789Z,5.30
2023-08-25T08:26:25.964Z,6.70
2023-08-25T08:28:52.403Z,19.80
2023-08-25T08:31:19.483Z,7.00
2023-08-25T08:33:48.045Z,7.10
2023-08-25T08:36:17.790Z,7.40
2023-08-25T08:38:44.245Z,9.50
2023-08-25T08:41:11.043Z,8.20
2023-08-25T08:43:38.858Z,10.50
2023-08-25T08:46:05.417Z,16.20
2023-08-25T08:48:33.145Z,5.10
2023-08-25T08:51:00.335Z,12.20
2023-08-25T08:53:27.476Z,3.40
2023-08-25T08:55:54.565Z,10.10
2023-08-25T08:58:21.915Z,13.00
2023-08-25T09:00:48.283Z,9.90
2023-08-25T09:03:18.934Z,8.30
2023-08-25T09:05:45.748Z,5.10
2023-08-25T09:08:12.283Z,4.10
2023-08-25T09:10:38.746Z,6.00
2023-08-25T09:13:05.501Z,5.90
2023-08-25T09:15:35.078Z,65.30
2023-08-25T09:18:07.078Z,9.80
2023-08-25T09:20:35.824Z,26.20
2023-08-25T09:23:03.291Z,15.00
2023-08-25T09:25:29.905Z,8.90
2023-08-25T09:28:02.741Z,24.70
2023-08-25T09:30:40.494Z,33.50
2023-08-25T09:33:08.862Z,6.10
2023-08-25T09:35:35.713Z,9.50
2023-08-25T09:38:03.030Z,4.90
2023-08-25T09:40:30.028Z,7.50
2023-08-25T09:43:00.258Z,7.20
2023-08-25T09:45:28.375Z,65.60
2023-08-25T09:48:10.817Z,21.70
2023-08-25T09:50:39.045Z,6.50
2023-08-25T09:53:10.128Z,5.20
2023-08-25T09:55:37.903Z,11.20
2023-08-25T09:58:05.050Z,8.70
2023-08-25T10:00:34.289Z,21.40
2023-08-25T10:03:02.142Z,22.30
2023-08-25T10:05:30.276Z,6.80
2023-08-25T10:07:57.381Z,4.00
2023-08-25T10:10:24.397Z,16.20
2023-08-25T10:12:51.094Z,16.00
2023-08-25T10:15:18.034Z,5.60
2023-08-25T10:17:45.885Z,23.40
2023-08-25T10:20:14.690Z,5.50
2023-08-25T10:22:46.135Z,16.10
2023-08-25T10:25:12.554Z,6.70
2023-08-25T10:27:39.138Z,9.60
2023-08-25T10:30:06.726Z,5.20
2023-08-25T10:32:55.796Z,5.50
2023-08-25T10:35:41.979Z,4.80
2023-08-25T10:38:20.229Z,2.90
2023-08-25T10:40:50.219Z,9.50
2023-08-25T10:43:24.438Z,4.30
2023-08-25T10:45:51.964Z,10.60
2023-08-25T10:48:34.345Z,7.30
2023-08-25T10:51:19.334Z,11.20
2023-08-25T10:53:46.557Z,8.30
2023-08-25T10:56:24.105Z,5.20
2023-08-25T10:58:57.175Z,7.00
2023-08-25T11:01:28.487Z,5.90
2023-08-25T11:04:13.912Z,7.20
2023-08-25T11:06:50.831Z,4.40
2023-08-25T11:09:20.817Z,7.30
2023-08-25T11:11:48.089Z,7.70
2023-08-25T11:14:15.045Z,5.00
2023-08-25T11:16:42.277Z,10.70
2023-08-25T11:19:12.025Z,2.90
2023-08-25T11:21:38.640Z,10.00
2023-08-25T11:24:05.474Z,12.70
2023-08-25T11:26:34.699Z,7.80
2023-08-25T11:29:01.339Z,3.50
2023-08-25T11:31:27.791Z,3.60
2023-08-25T11:33:55.571Z,3.00
2023-08-25T11:36:25.308Z,8.00
2023-08-25T11:38:51.815Z,8.50
2023-08-25T11:41:18.643Z,3.30
2023-08-25T11:43:48.164Z,4.50
2023-08-25T11:46:15.676Z,5.50
2023-08-25T11:48:42.194Z,7.80
2023-08-25T11:51:14.160Z,3.90
2023-08-25T11:53:41.491Z,9.80
2023-08-25T11:56:08.059Z,8.70
2023-08-25T11:58:35.625Z,4.90
2023-08-25T12:01:09.876Z,4.80
2023-08-25T12:03:37.269Z,3.70
2023-08-25T12:06:07.400Z,6.20
2023-08-25T12:08:34.604Z,4.50
2023-08-25T12:11:01.869Z,7.90
2023-08-25T12:13:34.523Z,6.00
2023-08-25T12:16:05.246Z,9.90
2023-08-25T12:18:35.789Z,7.70
2023-08-25T12:21:04.208Z,8.20
2023-08-25T12:23:36.966Z,4.80
2023-08-25T12:26:08.466Z,8.80
2023-08-25T12:28:35.122Z,4.10
2023-08-25T12:31:01.996Z,4.60
2023-08-25T12:33:29.041Z,3.50
2023-08-25T12:35:55.680Z,3.70
2023-08-25T12:38:22.180Z,6.70
2023-08-25T12:40:48.691Z,5.00
2023-08-25T12:43:15.284Z,5.20
2023-08-25T12:45:41.901Z,5.00
2023-08-25T12:48:08.905Z,3.40
2023-08-25T12:50:36.291Z,4.00
2023-08-25T12:53:03.570Z,8.90
2023-08-25T12:55:30.400Z,6.10
2023-08-25T12:57:57.845Z,5.40
2023-08-25T13:00:24.932Z,5.10
2023-08-25T13:02:54.011Z,5.30
2023-08-25T13:05:21.683Z,3.60
2023-08-25T13:07:48.686Z,13.00
2023-08-25T13:10:15.125Z,14.90
2023-08-25T13:12:41.893Z,13.50
2023-08-25T13:15:11.193Z,14.50
2023-08-25T13:17:38.329Z,13.40
2023-08-25T13:20:06.823Z,5.40
2023-08-25T13:22:33.769Z,10.80
2023-08-25T13:25:00.903Z,32.30
2023-08-25T13:27:28.632Z,8.60
2023-08-25T13:29:55.484Z,5.80
2023-08-25T13:32:22.488Z,3.70
2023-08-25T13:34:49.468Z,12.40
2023-08-25T13:37:17.539Z,24.90
2023-08-25T13:39:44.343Z,5.40
2023-08-25T13:42:10.862Z,6.30
2023-08-25T13:44:38.738Z,4.70
2023-08-25T13:47:07.899Z,9.00
2023-08-25T13:49:34.986Z,8.40
2023-08-25T13:52:01.560Z,5.60
2023-08-25T13:54:28.861Z,11.70
2023-08-25T13:56:57.870Z,4.50
2023-08-25T13:59:25.738Z,4.90
2023-08-25T14:01:52.479Z,10.20
2023-08-25T14:04:19.184Z,14.20
2023-08-25T14:06:45.722Z,5.30
2023-08-25T14:09:12.259Z,5.60
2023-08-25T14:11:38.816Z,4.80
2023-08-25T14:14:05.488Z,18.60
2023-08-25T14:16:34.657Z,5.80
2023-08-25T14:19:01.484Z,3.70
2023-08-25T14:21:28.050Z,6.70
2023-08-25T14:23:54.463Z,5.60
2023-08-25T14:26:21.222Z,5.10
2023-08-25T14:28:47.960Z,6.30
2023-08-25T14:31:14.563Z,5.10
2023-08-25T14:33:41.100Z,10.90
2023-08-25T14:36:07.556Z,3.50
2023-08-25T14:38:34.083Z,7.40
2023-08-25T14:41:00.650Z,5.60
2023-08-25T14:43:27.059Z,7.70
2023-08-25T14:45:53.767Z,5.90
2023-08-25T14:48:20.889Z,4.40
2023-08-25T14:50:57.876Z,7.40
2023-08-25T14:53:24.630Z,7.00
2023-08-25T14:55:51.334Z,5.30
2023-08-25T14:58:18.503Z,3.90
2023-08-25T15:00:47.899Z,3.70
2023-08-25T15:03:14.546Z,3.80
2023-08-25T15:05:41.454Z,5.00
2023-08-25T15:08:08.477Z,4.20
2023-08-25T15:10:35.250Z,6.60
2023-08-25T15:13:01.811Z,4.20
2023-08-25T15:15:29.273Z,51.60
2023-08-25T15:17:56.639Z,6.80
2023-08-25T15:20:23.397Z,7.30
2023-08-25T15:22:50.330Z,8.90
2023-08-25T15:25:16.867Z,5.50
2023-08-25T15:27:43.536Z,4.10
2023-08-25T15:30:11.034Z,17.70
2023-08-25T15:32:37.831Z,7.90
2023-08-25T15:35:04.964Z,4.10
2023-08-25T15:37:32.316Z,5.40
2023-08-25T15:39:59.069Z,3.90
2023-08-25T15:42:27.334Z,4.60
2023-08-25T15:44:54.019Z,12.20
2023-08-25T15:47:20.763Z,7.30
2023-08-25T15:49:47.470Z,6.50
2023-08-25T15:52:14.480Z,4.60
2023-08-25T15:54:40.934Z,5.90
2023-08-25T15:57:07.515Z,7.80
2023-08-25T15:59:35.501Z,6.50
2023-08-25T16:02:02.911Z,4.30
2023-08-25T16:04:29.900Z,5.20
2023-08-25T16:06:56.516Z,13.30
2023-08-25T16:09:23.225Z,4.50
2023-08-25T16:11:50.940Z,8.10
2023-08-25T16:14:20.501Z,5.00
2023-08-25T16:16:48.594Z,7.70
2023-08-25T16:19:16.081Z,6.10
2023-08-25T16:21:43.098Z,6.70
2023-08-25T16:24:09.470Z,6.50
2023-08-25T16:26:36.041Z,6.50
2023-08-25T16:29:03.073Z,4.30
2023-08-25T16:31:30.775Z,5.30
2023-08-25T16:33:57.661Z,10.50
2023-08-25T16:36:24.378Z,8.70
2023-08-25T16:38:51.065Z,7.70
2023-08-25T16:41:17.549Z,9.60
2023-08-25T16:43:44.014Z,64.90
2023-08-25T16:46:10.713Z,34.70
2023-08-25T16:48:37.179Z,98.10
2023-08-25T16:51:03.621Z,90.20
2023-08-25T16:53:30.283Z,185.20
2023-08-25T16:55:59.367Z,118.60
2023-08-25T16:58:27.684Z,103.10
2023-08-25T17:00:54.596Z,52.60
2023-08-25T17:03:21.287Z,48.60
2023-08-25T17:05:47.958Z,56.90
2023-08-25T17:08:14.819Z,93.20
2023-08-25T17:10:42.687Z,61.70
2023-08-25T17:13:09.380Z,94.40
2023-08-25T17:15:37.725Z,46.80
2023-08-25T17:18:05.100Z,52.40
2023-08-25T17:20:31.690Z,98.20
2023-08-25T17:22:58.162Z,104.00
2023-08-25T17:25:26.213Z,84.10
2023-08-25T17:27:54.134Z,93.30
2023-08-25T17:30:21.477Z,59.60
2023-08-25T17:32:48.245Z,52.50
2023-08-25T17:35:14.982Z,39.40
2023-08-25T17:37:41.749Z,49.40
2023-08-25T17:40:08.908Z,38.60
2023-08-25T17:42:35.495Z,26.00
2023-08-25T17:45:02.216Z,16.20
2023-08-25T17:47:29.180Z,13.20
2023-08-25T17:49:55.770Z,21.50
2023-08-25T17:52:22.336Z,29.30
2023-08-25T17:54:48.884Z,18.40
2023-08-25T17:57:15.725Z,23.50
2023-08-25T17:59:42.458Z,14.00
2023-08-25T18:02:10.385Z,27.50
2023-08-25T18:04:38.020Z,39.70
2023-08-25T18:07:05.157Z,34.40
2023-08-25T18:09:32.073Z,31.60
2023-08-25T18:12:00.489Z,44.80
2023-08-25T18:14:27.200Z,39.50
2023-08-25T18:16:54.510Z,25.40
2023-08-25T18:19:21.442Z,14.20
2023-08-25T18:21:48.277Z,12.80
2023-08-25T18:24:15.041Z,26.50
2023-08-25T18:26:44.178Z,25.80
2023-08-25T18:29:11.852Z,33.90
2023-08-25T18:31:39.790Z,29.90
2023-08-25T18:34:06.391Z,37.10
2023-08-25T18:36:34.308Z,42.40
2023-08-25T18:39:01.573Z,33.30
2023-08-25T18:41:28.517Z,29.60
2023-08-25T18:43:55.327Z,34.60
2023-08-25T18:46:22.470Z,18.90
2023-08-25T18:48:50.698Z,15.70
2023-08-25T18:51:17.644Z,16.20
2023-08-25T18:53:44.416Z,21.70
2023-08-25T18:56:12.267Z,15.70
2023-08-25T18:58:39.131Z,16.10
2023-08-25T19:01:06.204Z,15.30
2023-08-25T19:03:33.037Z,13.50
2023-08-25T19:06:03.855Z,19.40
2023-08-25T19:08:31.876Z,24.80
2023-08-25T19:11:01.629Z,14.20
2023-08-25T19:13:28.412Z,24.50
2023-08-25T19:15:59.889Z,18.80
2023-08-25T19:20:59.778Z,20.40
2023-08-25T19:23:32.642Z,16.20
2023-08-25T19:25:59.998Z,21.20
2023-08-25T19:28:26.693Z,25.30
2023-08-25T19:30:53.362Z,15.90
2023-08-25T19:33:19.836Z,23.70
2023-08-25T19:35:56.001Z,24.20
2023-08-25T19:38:22.588Z,24.50
2023-08-25T19:40:49.154Z,15.90
2023-08-25T19:43:15.634Z,22.00
2023-08-25T19:45:43.319Z,30.10
2023-08-25T19:48:10.473Z,33.00
2023-08-25T19:50:38.688Z,31.50
2023-08-25T19:53:06.395Z,26.20
2023-08-25T19:55:32.893Z,26.10
2023-08-25T19:57:59.380Z,27.20
2023-08-25T20:00:25.880Z,18.40
2023-08-25T20:02:52.628Z,16.80
2023-08-25T20:05:19.394Z,19.00
2023-08-25T20:07:45.906Z,19.20
2023-08-25T20:10:13.074Z,23.70
2023-08-25T20:12:39.731Z,20.80
2023-08-25T20:15:07.455Z,29.00
2023-08-25T20:17:34.677Z,35.50
2023-08-25T20:20:01.410Z,54.80
2023-08-25T20:22:28.255Z,46.50
2023-08-25T20:24:54.923Z,29.00
2023-08-25T20:27:21.647Z,22.80
2023-08-25T20:29:52.879Z,24.30
2023-08-25T20:32:20.904Z,22.40
2023-08-25T20:34:48.573Z,30.60
2023-08-25T20:37:15.411Z,23.80
2023-08-25T20:39:42.108Z,30.40
2023-08-25T20:42:08.546Z,23.80
2023-08-25T20:44:36.839Z,25.90
2023-08-25T20:47:03.466Z,24.20
2023-08-25T20:49:30.175Z,32.60
2023-08-25T20:51:56.933Z,31.40
2023-08-25T20:54:23.551Z,26.30
2023-08-25T20:56:50.113Z,31.30
2023-08-25T20:59:16.964Z,36.00
2023-08-25T21:01:43.920Z,23.60
2023-08-25T21:04:11.117Z,28.60
2023-08-25T21:06:38.578Z,26.60
2023-08-25T21:09:07.373Z,33.00
2023-08-25T21:11:33.970Z,27.20
2023-08-25T21:14:02.449Z,21.90
2023-08-25T21:16:37.119Z,19.60
2023-08-25T21:19:08.104Z,22.20
2023-08-25T21:21:39.321Z,22.70
2023-08-25T21:24:07.417Z,30.30
2023-08-25T21:26:34.259Z,20.10
2023-08-25T21:29:03.106Z,19.60
2023-08-25T21:31:30.648Z,21.50
2023-08-25T21:33:57.704Z,15.60
2023-08-25T21:36:24.323Z,22.50
2023-08-25T21:38:50.892Z,22.10
2023-08-25T21:41:17.339Z,27.10
2023-08-25T21:43:43.873Z,18.20
2023-08-25T21:46:10.484Z,18.20
2023-08-25T21:48:36.859Z,18.80
2023-08-25T21:51:03.487Z,19.20
2023-08-25T21:53:29.862Z,18.30
2023-08-25T21:55:56.570Z,15.60
2023-08-25T21:58:22.994Z,16.70
2023-08-25T22:00:50.746Z,17.70
2023-08-25T22:03:17.243Z,19.40
2023-08-25T22:05:43.827Z,20.60
2023-08-25T22:08:10.368Z,21.50
2023-08-25T22:10:37.225Z,20.00
2023-08-25T22:13:04.622Z,17.40
2023-08-25T22:15:32.297Z,24.00
2023-08-25T22:18:00.523Z,20.00
2023-08-25T22:20:27.468Z,23.80
2023-08-25T22:22:54.750Z,19.40
2023-08-25T22:25:21.637Z,20.50
2023-08-25T22:27:48.238Z,20.00
2023-08-25T22:30:14.799Z,24.80
2023-08-25T22:35:10.734Z,22.90
2023-08-25T22:37:37.185Z,20.10
2023-08-25T22:40:04.106Z,19.00
2023-08-25T22:42:30.796Z,24.60
2023-08-25T22:44:57.241Z,18.10
2023-08-25T22:47:23.785Z,18.50
2023-08-25T22:49:50.270Z,17.30
2023-08-25T22:52:16.854Z,16.40
2023-08-25T22:54:43.354Z,16.90
2023-08-25T22:57:09.747Z,23.70
2023-08-25T22:59:38.294Z,18.90
2023-08-25T23:02:04.900Z,21.20
2023-08-25T23:04:32.714Z,23.60
2023-08-25T23:06:59.120Z,25.00
2023-08-25T23:09:25.641Z,21.70
2023-08-25T23:11:52.123Z,19.90
2023-08-25T23:14:18.616Z,17.60
2023-08-25T23:16:45.801Z,19.00
2023-08-25T23:19:12.540Z,18.50
2023-08-25T23:21:40.000Z,14.60
2023-08-25T23:24:06.632Z,18.20
2023-08-25T23:26:34.639Z,14.20
2023-08-25T23:29:01.297Z,15.10
2023-08-25T23:31:27.730Z,17.20
2023-08-25T23:33:54.251Z,18.90
2023-08-25T23:36:20.761Z,20.10
2023-08-25T23:38:47.217Z,19.90
2023-08-25T23:41:13.738Z,25.20
2023-08-25T23:43:40.097Z,20.10
2023-08-25T23:46:09.152Z,18.40
2023-08-25T23:48:35.755Z,14.90
2023-08-25T23:51:03.897Z,14.30
2023-08-25T23:53:30.295Z,17.00
2023-08-25T23:55:56.759Z,17.80
2023-08-25T23:58:23.143Z,18.80
